sensor_id;sensor_type;location;lat;lon;timestamp;pressure;altitude;pressure_sealevel;temperature;humidity
40285;BME280;25997;50.214;19.354;2023-11-21T00:00:42;96933.34;;;8.73;66.05
40285;BME280;25997;50.214;19.354;2023-11-21T00:03:44;96928.25;;;8.83;66.03
40285;BME280;25997;50.214;19.354;2023-11-21T00:06:47;96934.13;;;8.67;66.25
40285;BME280;25997;50.214;19.354;2023-11-21T00:09:50;96936.63;;;8.60;66.63
40285;BME280;25997;50.214;19.354;2023-11-21T00:12:54;96935.59;;;8.51;66.66
40285;BME280;25997;50.214;19.354;2023-11-21T00:15:57;96945.31;;;8.58;67.04
40285;BME280;25997;50.214;19.354;2023-11-21T00:19:00;96952.41;;;8.64;66.54
40285;BME280;25997;50.214;19.354;2023-11-21T00:22:03;96959.81;;;8.38;67.09
40285;BME280;25997;50.214;19.354;2023-11-21T00:25:07;96950.56;;;8.60;66.54
40285;BME280;25997;50.214;19.354;2023-11-21T00:28:11;96946.88;;;8.46;66.88
40285;BME280;25997;50.214;19.354;2023-11-21T00:31:14;96951.50;;;8.62;66.07
40285;BME280;25997;50.214;19.354;2023-11-21T00:34:16;96952.25;;;8.55;65.70
40285;BME280;25997;50.214;19.354;2023-11-21T00:37:19;96955.09;;;8.69;65.74
40285;BME280;25997;50.214;19.354;2023-11-21T00:40:22;96949.88;;;8.72;65.50
40285;BME280;25997;50.214;19.354;2023-11-21T00:43:27;96952.50;;;8.70;65.18
40285;BME280;25997;50.214;19.354;2023-11-21T00:46:30;96954.88;;;8.55;65.38
40285;BME280;25997;50.214;19.354;2023-11-21T00:49:33;96953.22;;;8.62;65.05
40285;BME280;25997;50.214;19.354;2023-11-21T00:52:36;96947.31;;;8.75;65.17
40285;BME280;25997;50.214;19.354;2023-11-21T00:55:38;96953.38;;;8.71;64.91
40285;BME280;25997;50.214;19.354;2023-11-21T00:58:42;96954.34;;;8.77;64.91
40285;BME280;25997;50.214;19.354;2023-11-21T01:01:50;96949.06;;;8.74;64.86
40285;BME280;25997;50.214;19.354;2023-11-21T01:04:53;96939.34;;;8.67;65.17
40285;BME280;25997;50.214;19.354;2023-11-21T01:07:56;96942.09;;;8.75;65.13
40285;BME280;25997;50.214;19.354;2023-11-21T01:10:58;96948.25;;;8.78;65.24
40285;BME280;25997;50.214;19.354;2023-11-21T01:14:04;96952.44;;;8.67;65.33
40285;BME280;25997;50.214;19.354;2023-11-21T01:17:07;96950.75;;;8.71;65.59
40285;BME280;25997;50.214;19.354;2023-11-21T01:20:11;96947.16;;;8.64;65.79
40285;BME280;25997;50.214;19.354;2023-11-21T01:23:14;96948.16;;;8.74;65.80
40285;BME280;25997;50.214;19.354;2023-11-21T01:26:17;96948.09;;;8.69;65.72
40285;BME280;25997;50.214;19.354;2023-11-21T01:29:21;96940.31;;;8.72;66.05
40285;BME280;25997;50.214;19.354;2023-11-21T01:32:24;96940.97;;;8.59;66.04
40285;BME280;25997;50.214;19.354;2023-11-21T01:35:26;96942.69;;;8.57;66.30
40285;BME280;25997;50.214;19.354;2023-11-21T01:38:29;96947.25;;;8.70;66.08
40285;BME280;25997;50.214;19.354;2023-11-21T01:41:31;96949.72;;;8.61;65.95
40285;BME280;25997;50.214;19.354;2023-11-21T01:44:35;96968.38;;;8.30;65.83
40285;BME280;25997;50.214;19.354;2023-11-21T01:47:38;96958.81;;;8.30;66.43
40285;BME280;25997;50.214;19.354;2023-11-21T01:50:42;96955.06;;;8.16;67.05
40285;BME280;25997;50.214;19.354;2023-11-21T01:53:46;96965.63;;;8.22;66.42
40285;BME280;25997;50.214;19.354;2023-11-21T01:56:48;96951.88;;;8.32;66.38
40285;BME280;25997;50.214;19.354;2023-11-21T01:59:54;96965.09;;;8.41;65.96
40285;BME280;25997;50.214;19.354;2023-11-21T02:02:57;96945.81;;;8.36;66.21
40285;BME280;25997;50.214;19.354;2023-11-21T02:06:00;96949.66;;;8.07;66.63
40285;BME280;25997;50.214;19.354;2023-11-21T02:09:03;96971.00;;;7.83;66.86
40285;BME280;25997;50.214;19.354;2023-11-21T02:12:06;96968.66;;;7.97;66.65
40285;BME280;25997;50.214;19.354;2023-11-21T02:15:12;96968.91;;;8.11;66.05
40285;BME280;25997;50.214;19.354;2023-11-21T02:18:18;96996.44;;;7.94;65.87
40285;BME280;25997;50.214;19.354;2023-11-21T02:21:20;96965.19;;;7.98;65.99
40285;BME280;25997;50.214;19.354;2023-11-21T02:24:25;96960.72;;;7.93;66.02
40285;BME280;25997;50.214;19.354;2023-11-21T02:27:28;96960.28;;;8.15;65.83
40285;BME280;25997;50.214;19.354;2023-11-21T02:30:31;96964.84;;;8.28;65.55
40285;BME280;25997;50.214;19.354;2023-11-21T02:33:34;96970.09;;;8.28;65.38
40285;BME280;25997;50.214;19.354;2023-11-21T02:36:36;96960.53;;;8.28;65.35
40285;BME280;25997;50.214;19.354;2023-11-21T02:39:41;96959.47;;;8.19;65.42
40285;BME280;25997;50.214;19.354;2023-11-21T02:42:44;96956.75;;;8.13;65.75
40285;BME280;25997;50.214;19.354;2023-11-21T02:45:48;96967.28;;;8.17;65.77
40285;BME280;25997;50.214;19.354;2023-11-21T02:48:51;96977.50;;;8.05;65.99
40285;BME280;25997;50.214;19.354;2023-11-21T02:51:55;96971.13;;;7.91;66.28
40285;BME280;25997;50.214;19.354;2023-11-21T02:54:59;96966.16;;;8.03;65.84
40285;BME280;25997;50.214;19.354;2023-11-21T02:58:01;96981.69;;;7.96;66.02
40285;BME280;25997;50.214;19.354;2023-11-21T03:01:04;96973.91;;;7.99;66.17
40285;BME280;25997;50.214;19.354;2023-11-21T03:04:08;96979.28;;;8.06;65.77
40285;BME280;25997;50.214;19.354;2023-11-21T03:07:10;96977.59;;;8.08;65.65
40285;BME280;25997;50.214;19.354;2023-11-21T03:10:16;96984.44;;;8.02;65.87
40285;BME280;25997;50.214;19.354;2023-11-21T03:13:18;96980.28;;;8.13;65.42
40285;BME280;25997;50.214;19.354;2023-11-21T03:16:21;96985.69;;;8.23;65.04
40285;BME280;25997;50.214;19.354;2023-11-21T03:19:23;96972.63;;;8.23;65.26
40285;BME280;25997;50.214;19.354;2023-11-21T03:22:26;96987.97;;;8.05;65.63
40285;BME280;25997;50.214;19.354;2023-11-21T03:25:30;96978.66;;;8.19;65.49
40285;BME280;25997;50.214;19.354;2023-11-21T03:28:33;96984.78;;;8.21;65.29
40285;BME280;25997;50.214;19.354;2023-11-21T03:31:35;96990.13;;;8.29;65.16
40285;BME280;25997;50.214;19.354;2023-11-21T03:34:53;96987.31;;;8.15;65.29
40285;BME280;25997;50.214;19.354;2023-11-21T03:37:56;96989.84;;;8.12;65.67
40285;BME280;25997;50.214;19.354;2023-11-21T03:41:00;96990.09;;;8.26;65.28
40285;BME280;25997;50.214;19.354;2023-11-21T03:44:04;96989.94;;;8.17;65.50
40285;BME280;25997;50.214;19.354;2023-11-21T03:47:06;97005.19;;;7.94;66.15
40285;BME280;25997;50.214;19.354;2023-11-21T03:50:09;96982.63;;;7.99;66.05
40285;BME280;25997;50.214;19.354;2023-11-21T03:53:12;96994.88;;;8.02;65.98
40285;BME280;25997;50.214;19.354;2023-11-21T03:56:16;96997.69;;;8.12;65.74
40285;BME280;25997;50.214;19.354;2023-11-21T03:59:18;96998.50;;;8.10;65.75
40285;BME280;25997;50.214;19.354;2023-11-21T04:02:21;97000.97;;;8.02;65.98
40285;BME280;25997;50.214;19.354;2023-11-21T04:05:23;97002.75;;;8.03;65.77
40285;BME280;25997;50.214;19.354;2023-11-21T04:08:26;96998.50;;;8.10;65.84
40285;BME280;25997;50.214;19.354;2023-11-21T04:11:30;96996.06;;;8.17;65.62
40285;BME280;25997;50.214;19.354;2023-11-21T04:14:33;97007.31;;;8.13;65.73
40285;BME280;25997;50.214;19.354;2023-11-21T04:17:35;97004.88;;;8.24;65.66
40285;BME280;25997;50.214;19.354;2023-11-21T04:20:38;97005.53;;;8.12;65.87
40285;BME280;25997;50.214;19.354;2023-11-21T04:23:40;97010.84;;;8.15;65.89
40285;BME280;25997;50.214;19.354;2023-11-21T04:26:45;97005.53;;;8.11;65.90
40285;BME280;25997;50.214;19.354;2023-11-21T04:29:47;97003.75;;;8.10;65.91
40285;BME280;25997;50.214;19.354;2023-11-21T04:32:50;97000.13;;;8.03;65.88
40285;BME280;25997;50.214;19.354;2023-11-21T04:35:53;97007.13;;;8.04;65.83
40285;BME280;25997;50.214;19.354;2023-11-21T04:38:55;97007.09;;;8.03;65.96
40285;BME280;25997;50.214;19.354;2023-11-21T04:41:59;97019.44;;;8.10;65.75
40285;BME280;25997;50.214;19.354;2023-11-21T04:45:02;97027.28;;;8.11;65.69
40285;BME280;25997;50.214;19.354;2023-11-21T04:48:08;97023.00;;;8.13;65.66
40285;BME280;25997;50.214;19.354;2023-11-21T04:51:11;97037.00;;;8.18;65.57
40285;BME280;25997;50.214;19.354;2023-11-21T04:54:13;97025.72;;;8.19;65.54
40285;BME280;25997;50.214;19.354;2023-11-21T04:57:17;97033.66;;;8.25;65.56
40285;BME280;25997;50.214;19.354;2023-11-21T05:00:20;97037.72;;;8.10;65.84
40285;BME280;25997;50.214;19.354;2023-11-21T05:03:23;97051.88;;;8.21;65.66
40285;BME280;25997;50.214;19.354;2023-11-21T05:06:25;97036.94;;;8.14;65.72
40285;BME280;25997;50.214;19.354;2023-11-21T05:09:28;97030.69;;;8.07;65.93
40285;BME280;25997;50.214;19.354;2023-11-21T05:12:34;97042.03;;;8.06;65.84
40285;BME280;25997;50.214;19.354;2023-11-21T05:15:38;97042.28;;;8.20;65.58
40285;BME280;25997;50.214;19.354;2023-11-21T05:18:41;97044.81;;;8.15;65.71
40285;BME280;25997;50.214;19.354;2023-11-21T05:21:44;97046.63;;;8.19;65.58
40285;BME280;25997;50.214;19.354;2023-11-21T05:24:47;97042.22;;;8.15;65.59
40285;BME280;25997;50.214;19.354;2023-11-21T05:27:51;97050.97;;;8.17;65.45
40285;BME280;25997;50.214;19.354;2023-11-21T05:30:54;97051.34;;;7.94;66.07
40285;BME280;25997;50.214;19.354;2023-11-21T05:33:56;97055.94;;;8.07;65.62
40285;BME280;25997;50.214;19.354;2023-11-21T05:36:59;97058.41;;;7.98;65.87
40285;BME280;25997;50.214;19.354;2023-11-21T05:40:02;97055.84;;;8.02;65.86
40285;BME280;25997;50.214;19.354;2023-11-21T05:43:08;97062.22;;;8.13;65.84
40285;BME280;25997;50.214;19.354;2023-11-21T05:46:10;97056.97;;;8.13;65.82
40285;BME280;25997;50.214;19.354;2023-11-21T05:49:14;97063.97;;;8.16;65.65
40285;BME280;25997;50.214;19.354;2023-11-21T05:52:17;97066.84;;;8.29;65.63
40285;BME280;25997;50.214;19.354;2023-11-21T05:55:22;97075.88;;;8.45;65.31
40285;BME280;25997;50.214;19.354;2023-11-21T05:58:28;97075.78;;;8.40;65.25
40285;BME280;25997;50.214;19.354;2023-11-21T06:01:30;97079.38;;;8.45;65.36
40285;BME280;25997;50.214;19.354;2023-11-21T06:04:33;97073.41;;;8.51;65.16
40285;BME280;25997;50.214;19.354;2023-11-21T06:07:35;97082.97;;;8.50;65.16
40285;BME280;25997;50.214;19.354;2023-11-21T06:10:39;97091.44;;;8.37;65.31
40285;BME280;25997;50.214;19.354;2023-11-21T06:13:43;97088.66;;;8.30;65.50
40285;BME280;25997;50.214;19.354;2023-11-21T06:16:46;97086.97;;;8.32;65.47
40285;BME280;25997;50.214;19.354;2023-11-21T06:19:48;97089.47;;;8.26;65.64
40285;BME280;25997;50.214;19.354;2023-11-21T06:22:51;97092.00;;;8.23;65.71
40285;BME280;25997;50.214;19.354;2023-11-21T06:25:54;97091.13;;;8.22;65.70
40285;BME280;25997;50.214;19.354;2023-11-21T06:28:59;97096.31;;;8.19;65.75
40285;BME280;25997;50.214;19.354;2023-11-21T06:32:04;97092.06;;;8.24;65.58
40285;BME280;25997;50.214;19.354;2023-11-21T06:35:07;97099.13;;;8.30;65.60
40285;BME280;25997;50.214;19.354;2023-11-21T06:38:11;97104.28;;;8.25;65.86
40285;BME280;25997;50.214;19.354;2023-11-21T06:41:13;97097.25;;;8.23;65.74
40285;BME280;25997;50.214;19.354;2023-11-21T06:44:18;97103.91;;;8.07;65.95
40285;BME280;25997;50.214;19.354;2023-11-21T06:47:21;97103.19;;;8.14;66.08
40285;BME280;25997;50.214;19.354;2023-11-21T06:50:25;97101.72;;;8.28;65.91
40285;BME280;25997;50.214;19.354;2023-11-21T06:53:28;97101.53;;;8.19;65.92
40285;BME280;25997;50.214;19.354;2023-11-21T06:56:30;97101.44;;;8.15;66.14
40285;BME280;25997;50.214;19.354;2023-11-21T06:59:35;97109.22;;;8.12;66.18
40285;BME280;25997;50.214;19.354;2023-11-21T07:02:38;97118.03;;;8.17;66.33
40285;BME280;25997;50.214;19.354;2023-11-21T07:05:40;97114.72;;;8.24;66.11
40285;BME280;25997;50.214;19.354;2023-11-21T07:08:43;97118.28;;;8.29;65.92
40285;BME280;25997;50.214;19.354;2023-11-21T07:11:45;97120.06;;;8.31;65.75
40285;BME280;25997;50.214;19.354;2023-11-21T07:14:50;97121.91;;;8.35;65.75
40285;BME280;25997;50.214;19.354;2023-11-21T07:17:53;97136.38;;;8.18;65.97
40285;BME280;25997;50.214;19.354;2023-11-21T07:20:56;97120.56;;;8.12;66.32
40285;BME280;25997;50.214;19.354;2023-11-21T07:24:00;97118.53;;;7.98;66.54
40285;BME280;25997;50.214;19.354;2023-11-21T07:27:03;97124.78;;;8.06;66.47
40285;BME280;25997;50.214;19.354;2023-11-21T07:30:08;97122.28;;;8.12;66.07
40285;BME280;25997;50.214;19.354;2023-11-21T07:33:11;97129.31;;;8.14;66.07
40285;BME280;25997;50.214;19.354;2023-11-21T07:36:14;97126.97;;;8.26;65.91
40285;BME280;25997;50.214;19.354;2023-11-21T07:39:17;97139.13;;;8.24;66.03
40285;BME280;25997;50.214;19.354;2023-11-21T07:42:20;97134.03;;;8.32;65.78
40285;BME280;25997;50.214;19.354;2023-11-21T07:45:25;97130.69;;;8.37;65.86
40285;BME280;25997;50.214;19.354;2023-11-21T07:48:28;97149.00;;;8.39;65.82
40285;BME280;25997;50.214;19.354;2023-11-21T07:51:31;97142.00;;;8.38;65.78
40285;BME280;25997;50.214;19.354;2023-11-21T07:54:34;97148.09;;;8.37;65.82
40285;BME280;25997;50.214;19.354;2023-11-21T07:57:37;97143.75;;;8.37;65.81
40285;BME280;25997;50.214;19.354;2023-11-21T08:00:41;97147.09;;;8.32;65.81
40285;BME280;25997;50.214;19.354;2023-11-21T08:03:43;97154.13;;;8.33;65.96
40285;BME280;25997;50.214;19.354;2023-11-21T08:06:46;97164.00;;;8.47;65.87
40285;BME280;25997;50.214;19.354;2023-11-21T08:09:49;97164.00;;;8.49;65.82
40285;BME280;25997;50.214;19.354;2023-11-21T08:12:51;97157.22;;;8.57;65.97
40285;BME280;25997;50.214;19.354;2023-11-21T08:15:56;97161.63;;;8.60;65.71
40285;BME280;25997;50.214;19.354;2023-11-21T08:19:02;97162.63;;;8.66;65.74
40285;BME280;25997;50.214;19.354;2023-11-21T08:22:05;97162.72;;;8.71;65.72
40285;BME280;25997;50.214;19.354;2023-11-21T08:25:09;97163.78;;;8.82;65.52
40285;BME280;25997;50.214;19.354;2023-11-21T08:28:12;97163.88;;;8.86;65.51
40285;BME280;25997;50.214;19.354;2023-11-21T08:31:16;97169.06;;;8.83;65.60
40285;BME280;25997;50.214;19.354;2023-11-21T08:34:20;97170.09;;;8.91;65.35
40285;BME280;25997;50.214;19.354;2023-11-21T08:37:22;97175.56;;;9.02;65.25
40285;BME280;25997;50.214;19.354;2023-11-21T08:40:25;97168.53;;;9.01;65.12
40285;BME280;25997;50.214;19.354;2023-11-21T08:43:27;97170.41;;;9.08;65.09
40285;BME280;25997;50.214;19.354;2023-11-21T08:46:32;97166.16;;;9.14;64.98
40285;BME280;25997;50.214;19.354;2023-11-21T08:49:34;97173.31;;;9.24;65.02
40285;BME280;25997;50.214;19.354;2023-11-21T08:52:37;97181.31;;;9.34;64.88
40285;BME280;25997;50.214;19.354;2023-11-21T08:55:40;97180.56;;;9.39;64.49
40285;BME280;25997;50.214;19.354;2023-11-21T08:58:42;97185.72;;;9.33;64.46
40285;BME280;25997;50.214;19.354;2023-11-21T09:01:46;97187.28;;;9.25;64.48
40285;BME280;25997;50.214;19.354;2023-11-21T09:04:49;97180.97;;;9.14;64.73
40285;BME280;25997;50.214;19.354;2023-11-21T09:07:53;97180.97;;;9.14;64.63
40285;BME280;25997;50.214;19.354;2023-11-21T09:10:56;97174.13;;;9.20;64.42
40285;BME280;25997;50.214;19.354;2023-11-21T09:13:58;97165.34;;;9.17;64.24
40285;BME280;25997;50.214;19.354;2023-11-21T09:17:03;97172.16;;;9.09;64.30
40285;BME280;25997;50.214;19.354;2023-11-21T09:20:12;97163.72;;;9.25;64.49
40285;BME280;25997;50.214;19.354;2023-11-21T09:23:16;97175.81;;;9.15;64.11
40285;BME280;25997;50.214;19.354;2023-11-21T09:26:18;97174.19;;;9.25;64.20
40285;BME280;25997;50.214;19.354;2023-11-21T09:29:21;97174.78;;;9.09;63.90
40285;BME280;25997;50.214;19.354;2023-11-21T09:32:26;97182.44;;;8.98;63.59
40285;BME280;25997;50.214;19.354;2023-11-21T09:35:28;97175.47;;;8.99;63.67
40285;BME280;25997;50.214;19.354;2023-11-21T09:38:31;97178.84;;;8.93;63.29
40285;BME280;25997;50.214;19.354;2023-11-21T09:41:39;97171.94;;;8.95;63.32
40285;BME280;25997;50.214;19.354;2023-11-21T09:44:50;97183.41;;;9.02;63.48
40285;BME280;25997;50.214;19.354;2023-11-21T09:47:57;97178.19;;;9.03;63.04
40285;BME280;25997;50.214;19.354;2023-11-21T09:51:01;97172.56;;;8.84;63.26
40285;BME280;25997;50.214;19.354;2023-11-21T09:54:05;97183.03;;;8.84;63.21
40285;BME280;25997;50.214;19.354;2023-11-21T09:57:10;97179.50;;;8.82;63.37
40285;BME280;25997;50.214;19.354;2023-11-21T10:00:13;97182.31;;;8.91;63.46
40285;BME280;25997;50.214;19.354;2023-11-21T10:03:20;97179.09;;;9.07;63.84
40285;BME280;25997;50.214;19.354;2023-11-21T10:06:24;97173.66;;;9.44;64.15
40285;BME280;25997;50.214;19.354;2023-11-21T10:09:28;97172.47;;;9.81;64.21
40285;BME280;25997;50.214;19.354;2023-11-21T10:12:32;97171.88;;;10.00;63.38
40285;BME280;25997;50.214;19.354;2023-11-21T10:15:36;97169.72;;;10.29;64.10
40285;BME280;25997;50.214;19.354;2023-11-21T10:18:40;97177.00;;;10.54;63.57
40285;BME280;25997;50.214;19.354;2023-11-21T10:21:43;97170.69;;;10.38;62.76
40285;BME280;25997;50.214;19.354;2023-11-21T10:24:46;97178.44;;;10.29;62.71
40285;BME280;25997;50.214;19.354;2023-11-21T10:27:49;97183.91;;;9.86;62.65
40285;BME280;25997;50.214;19.354;2023-11-21T10:30:52;97180.19;;;9.72;62.77
40285;BME280;25997;50.214;19.354;2023-11-21T10:34:09;97177.47;;;9.64;62.18
40285;BME280;25997;50.214;19.354;2023-11-21T10:37:12;97184.28;;;9.53;63.04
40285;BME280;25997;50.214;19.354;2023-11-21T10:40:16;97173.22;;;9.71;63.10
40285;BME280;25997;50.214;19.354;2023-11-21T10:43:19;97171.53;;;9.76;62.54
40285;BME280;25997;50.214;19.354;2023-11-21T10:46:23;97166.47;;;9.88;62.55
40285;BME280;25997;50.214;19.354;2023-11-21T10:49:28;97164.56;;;9.78;61.54
40285;BME280;25997;50.214;19.354;2023-11-21T10:52:31;97171.72;;;9.88;61.73
40285;BME280;25997;50.214;19.354;2023-11-21T10:55:34;97162.06;;;9.87;61.86
40285;BME280;25997;50.214;19.354;2023-11-21T10:58:40;97171.63;;;9.82;61.61
40285;BME280;25997;50.214;19.354;2023-11-21T11:01:45;97169.91;;;9.84;61.62
40285;BME280;25997;50.214;19.354;2023-11-21T11:04:50;97175.25;;;9.90;61.73
40285;BME280;25997;50.214;19.354;2023-11-21T11:07:58;97174.06;;;9.71;61.33
40285;BME280;25997;50.214;19.354;2023-11-21T11:11:04;97171.50;;;9.73;59.00
40285;BME280;25997;50.214;19.354;2023-11-21T11:14:08;97170.59;;;9.72;60.99
40285;BME280;25997;50.214;19.354;2023-11-21T11:17:13;97172.03;;;9.51;61.07
40285;BME280;25997;50.214;19.354;2023-11-21T11:20:18;97169.28;;;9.45;61.14
40285;BME280;25997;50.214;19.354;2023-11-21T11:23:44;97173.81;;;9.53;61.15
40285;BME280;25997;50.214;19.354;2023-11-21T11:26:59;97181.28;;;9.31;60.86
40285;BME280;25997;50.214;19.354;2023-11-21T11:30:13;97173.31;;;9.24;61.17
40285;BME280;25997;50.214;19.354;2023-11-21T11:33:25;97178.19;;;9.03;61.14
40285;BME280;25997;50.214;19.354;2023-11-21T11:36:34;97174.78;;;9.09;61.92
40285;BME280;25997;50.214;19.354;2023-11-21T11:39:42;97185.25;;;9.09;61.30
40285;BME280;25997;50.214;19.354;2023-11-21T11:42:56;97190.53;;;9.10;61.13
40285;BME280;25997;50.214;19.354;2023-11-21T11:46:03;97187.25;;;9.22;61.82
40285;BME280;25997;50.214;19.354;2023-11-21T11:49:05;97188.34;;;9.35;61.90
40285;BME280;25997;50.214;19.354;2023-11-21T11:52:38;97194.56;;;9.43;60.44
40285;BME280;25997;50.214;19.354;2023-11-21T11:55:41;97198.75;;;9.30;61.09
40285;BME280;25997;50.214;19.354;2023-11-21T11:58:44;97196.28;;;9.39;61.29
40285;BME280;25997;50.214;19.354;2023-11-21T12:01:49;97191.78;;;9.31;60.41
40285;BME280;25997;50.214;19.354;2023-11-21T12:04:55;97197.59;;;9.16;60.15
40285;BME280;25997;50.214;19.354;2023-11-21T12:08:01;97202.94;;;9.20;61.02
40285;BME280;25997;50.214;19.354;2023-11-21T12:11:05;97201.97;;;9.15;60.39
40285;BME280;25997;50.214;19.354;2023-11-21T12:14:07;97202.72;;;9.08;60.79
40285;BME280;25997;50.214;19.354;2023-11-21T12:17:10;97201.03;;;9.12;60.42
40285;BME280;25997;50.214;19.354;2023-11-21T12:20:15;97204.72;;;9.23;60.34
40285;BME280;25997;50.214;19.354;2023-11-21T12:23:20;97195.22;;;9.29;60.03
40285;BME280;25997;50.214;19.354;2023-11-21T12:26:23;97198.66;;;9.25;60.07
40285;BME280;25997;50.214;19.354;2023-11-21T12:29:26;97195.47;;;9.45;60.42
40285;BME280;25997;50.214;19.354;2023-11-21T12:32:30;97193.91;;;9.56;60.39
40285;BME280;25997;50.214;19.354;2023-11-21T12:35:34;97202.13;;;9.75;60.25
40285;BME280;25997;50.214;19.354;2023-11-21T12:38:38;97196.47;;;10.05;60.85
40285;BME280;25997;50.214;19.354;2023-11-21T12:41:41;97195.78;;;10.18;60.15
40285;BME280;25997;50.214;19.354;2023-11-21T12:44:46;97196.78;;;10.26;59.91
40285;BME280;25997;50.214;19.354;2023-11-21T12:47:50;97196.59;;;10.16;59.88
40285;BME280;25997;50.214;19.354;2023-11-21T12:50:52;97201.75;;;10.08;59.58
40285;BME280;25997;50.214;19.354;2023-11-21T12:53:57;97199.88;;;10.01;59.93
40285;BME280;25997;50.214;19.354;2023-11-21T12:57:00;97201.44;;;9.88;59.63
40285;BME280;25997;50.214;19.354;2023-11-21T13:00:04;97205.66;;;9.77;59.90
40285;BME280;25997;50.214;19.354;2023-11-21T13:03:14;97207.22;;;9.68;59.63
40285;BME280;25997;50.214;19.354;2023-11-21T13:06:19;97205.44;;;9.67;59.78
40285;BME280;25997;50.214;19.354;2023-11-21T13:09:27;97217.31;;;9.42;60.05
40285;BME280;25997;50.214;19.354;2023-11-21T13:12:31;97216.28;;;9.36;59.87
40285;BME280;25997;50.214;19.354;2023-11-21T13:15:39;97216.34;;;9.39;60.03
40285;BME280;25997;50.214;19.354;2023-11-21T13:18:42;97216.44;;;9.45;60.23
40285;BME280;25997;50.214;19.354;2023-11-21T13:21:45;97224.44;;;9.51;60.27
40285;BME280;25997;50.214;19.354;2023-11-21T13:24:49;97220.13;;;9.56;60.39
40285;BME280;25997;50.214;19.354;2023-11-21T13:27:52;97216.59;;;9.52;60.18
40285;BME280;25997;50.214;19.354;2023-11-21T13:30:54;97229.59;;;9.48;60.22
40285;BME280;25997;50.214;19.354;2023-11-21T13:33:57;97221.81;;;9.51;60.09
40285;BME280;25997;50.214;19.354;2023-11-21T13:37:06;97225.94;;;9.38;59.78
40285;BME280;25997;50.214;19.354;2023-11-21T13:40:10;97236.34;;;9.34;59.84
40285;BME280;25997;50.214;19.354;2023-11-21T13:43:17;97229.13;;;9.20;59.78
40285;BME280;25997;50.214;19.354;2023-11-21T13:46:21;97233.97;;;8.99;59.40
40285;BME280;25997;50.214;19.354;2023-11-21T13:49:25;97238.22;;;8.94;59.56
40285;BME280;25997;50.214;19.354;2023-11-21T13:52:27;97229.19;;;8.80;59.68
40285;BME280;25997;50.214;19.354;2023-11-21T13:55:35;97226.66;;;8.85;59.88
40285;BME280;25997;50.214;19.354;2023-11-21T13:58:40;97229.22;;;8.82;59.69
40285;BME280;25997;50.214;19.354;2023-11-21T14:01:48;97231.13;;;8.89;59.68
40285;BME280;25997;50.214;19.354;2023-11-21T14:04:58;97227.81;;;8.97;59.81
40285;BME280;25997;50.214;19.354;2023-11-21T14:08:06;97234.69;;;8.92;59.85
40285;BME280;25997;50.214;19.354;2023-11-21T14:11:10;97236.19;;;8.80;60.08
40285;BME280;25997;50.214;19.354;2023-11-21T14:14:19;97240.91;;;8.97;60.16
40285;BME280;25997;50.214;19.354;2023-11-21T14:17:21;97238.13;;;8.90;59.80
40285;BME280;25997;50.214;19.354;2023-11-21T14:20:25;97233.56;;;8.81;60.15
40285;BME280;25997;50.214;19.354;2023-11-21T14:23:29;97244.03;;;8.81;60.42
40285;BME280;25997;50.214;19.354;2023-11-21T14:26:39;97243.13;;;8.79;60.47
40285;BME280;25997;50.214;19.354;2023-11-21T14:29:42;97247.38;;;8.74;60.57
40285;BME280;25997;50.214;19.354;2023-11-21T14:32:45;97249.97;;;8.73;60.72
40285;BME280;25997;50.214;19.354;2023-11-21T14:35:48;97251.00;;;8.79;60.77
40285;BME280;25997;50.214;19.354;2023-11-21T14:38:51;97256.41;;;8.88;60.58
40285;BME280;25997;50.214;19.354;2023-11-21T14:41:56;97252.13;;;8.90;60.84
40285;BME280;25997;50.214;19.354;2023-11-21T14:45:00;97258.97;;;8.87;60.74
40285;BME280;25997;50.214;19.354;2023-11-21T14:48:07;97263.44;;;8.89;61.03
40285;BME280;25997;50.214;19.354;2023-11-21T14:51:16;97260.75;;;8.88;60.90
40285;BME280;25997;50.214;19.354;2023-11-21T14:54:36;97270.31;;;8.86;60.99
40285;BME280;25997;50.214;19.354;2023-11-21T14:57:43;97267.72;;;8.87;60.87
40285;BME280;25997;50.214;19.354;2023-11-21T15:00:50;97268.72;;;8.91;60.87
40285;BME280;25997;50.214;19.354;2023-11-21T15:03:57;97271.22;;;8.86;61.04
40285;BME280;25997;50.214;19.354;2023-11-21T15:07:00;97276.38;;;8.83;61.00
40285;BME280;25997;50.214;19.354;2023-11-21T15:10:04;97280.84;;;8.89;61.40
40285;BME280;25997;50.214;19.354;2023-11-21T15:13:13;97277.47;;;8.93;61.11
40285;BME280;25997;50.214;19.354;2023-11-21T15:16:17;97279.28;;;8.97;61.22
40285;BME280;25997;50.214;19.354;2023-11-21T15:19:24;97285.47;;;9.00;61.00
40285;BME280;25997;50.214;19.354;2023-11-21T15:22:46;97285.44;;;8.99;60.92
40285;BME280;25997;50.214;19.354;2023-11-21T15:25:49;97284.47;;;8.94;60.99
40285;BME280;25997;50.214;19.354;2023-11-21T15:28:53;97280.09;;;8.93;61.13
40285;BME280;25997;50.214;19.354;2023-11-21T15:31:56;97292.16;;;8.86;61.24
40285;BME280;25997;50.214;19.354;2023-11-21T15:34:58;97289.38;;;8.80;61.44
40285;BME280;25997;50.214;19.354;2023-11-21T15:38:01;97293.69;;;8.78;61.30
40285;BME280;25997;50.214;19.354;2023-11-21T15:41:04;97289.44;;;8.82;61.47
40285;BME280;25997;50.214;19.354;2023-11-21T15:44:11;97292.22;;;8.89;61.64
40285;BME280;25997;50.214;19.354;2023-11-21T15:47:14;97291.28;;;8.87;61.31
40285;BME280;25997;50.214;19.354;2023-11-21T15:50:17;97295.47;;;8.79;61.52
40285;BME280;25997;50.214;19.354;2023-11-21T15:53:19;97299.75;;;8.76;61.48
40285;BME280;25997;50.214;19.354;2023-11-21T15:56:22;97296.28;;;8.77;61.54
40285;BME280;25997;50.214;19.354;2023-11-21T15:59:26;97296.19;;;8.71;61.53
40285;BME280;25997;50.214;19.354;2023-11-21T16:02:32;97305.56;;;8.63;61.78
40285;BME280;25997;50.214;19.354;2023-11-21T16:05:34;97307.56;;;8.74;61.94
40285;BME280;25997;50.214;19.354;2023-11-21T16:08:37;97313.81;;;8.81;61.60
40285;BME280;25997;50.214;19.354;2023-11-21T16:11:39;97318.34;;;8.88;61.50
40285;BME280;25997;50.214;19.354;2023-11-21T16:14:44;97320.97;;;8.88;61.58